メインページ
METAR-TAF:

METAR-TAF

空港 :

ンジャメナ, チャド

ンジャメナ国際空港

緯度: 12-08N, 経度: 015-02E, 海抜: 295m

現時点の気象観測

当レポートは42分前の09:00(UTC)に作成
の風 14kt、北東からの間で変化する
気温 38°C
湿度 8%
気圧 1012 hPa
視程: 8000m

METAR: FTTJ 250900Z 08014KT 040V100 8000 NSC 38/M02 Q1012 NOSIG

時間: 10:42 (09:42 UTC)

予報

当レポートは4時間42分前の05:00(UTC)に作成
予報は25日の 06時(UTC)から 26日の 12時(UTC)まで有効
北/北東の風 6kt
視程: 4000m
煙霧
25日の 10時(UTC)から 25日の 16時(UTC)まで一時的に
の風 12kt
視程: 8000m
26日の 03時(UTC)から 26日の 05時(UTC)まで徐々に
視程: 2500m
広範な塵
26日の 08時(UTC)から 26日の 12時(UTC)まで一時的に
の風 15kt

TAF: FTTJ 250500Z 2506/2612 02006KT 4000 HZ NSC TEMPO 2510/2516 08012KT 8000 NSW BECMG 2603/2605 2500 DU TEMPO 2608/2612 08015KT

4,000以上の空港の気象観測と天気予報(METAR報とTAF報)

利用可能な観測所は地図上に黄色い丸と赤い丸で示す。

丸の上にカーソルを重ねると観測所名を参照できる。

次にクリックすると気象観測と天気予報を参照できる。

マップの切り替え:黒色「×」印の緑ボタンをクリックして拡大、「-」印の緑ボタンをクリックして縮小、緑色の三角印をクリックして隣りの地図に切り替え


METAR-TAF: